createdAt,value
2023-02-14T00:01:10.506Z,5.60
2023-02-14T00:03:37.869Z,5.60
2023-02-14T00:06:10.001Z,5.60
2023-02-14T00:08:37.394Z,5.50
2023-02-14T00:11:05.505Z,5.70
2023-02-14T00:13:32.634Z,5.60
2023-02-14T00:15:59.529Z,5.60
2023-02-14T00:18:46.666Z,5.60
2023-02-14T00:21:13.538Z,5.50
2023-02-14T00:23:40.639Z,5.50
2023-02-14T00:26:14.236Z,5.70
2023-02-14T00:28:41.114Z,5.50
2023-02-14T00:31:08.241Z,5.60
2023-02-14T00:33:35.232Z,5.60
2023-02-14T00:36:10.052Z,5.50
2023-02-14T00:38:37.173Z,5.60
2023-02-14T00:41:05.083Z,5.50
2023-02-14T00:43:32.031Z,5.60
2023-02-14T00:45:58.866Z,5.70
2023-02-14T00:48:26.296Z,5.60
2023-02-14T00:50:53.104Z,5.60
2023-02-14T00:53:19.932Z,5.60
2023-02-14T00:55:49.581Z,5.60
2023-02-14T00:58:19.512Z,5.60
2023-02-14T01:00:46.384Z,5.60
2023-02-14T01:03:13.382Z,5.60
2023-02-14T01:05:40.235Z,5.60
2023-02-14T01:08:07.122Z,5.60
2023-02-14T01:10:35.943Z,5.60
2023-02-14T01:13:02.874Z,5.60
2023-02-14T01:15:33.791Z,5.60
2023-02-14T01:18:00.764Z,5.60
2023-02-14T01:20:27.680Z,5.60
2023-02-14T01:24:09.819Z,5.60
2023-02-14T01:27:52.235Z,5.60
2023-02-14T01:31:34.424Z,5.60
2023-02-14T01:35:16.330Z,5.50
2023-02-14T01:38:58.324Z,5.50
2023-02-14T01:42:40.446Z,5.50
2023-02-14T01:46:22.574Z,5.50
2023-02-14T01:49:18.455Z,5.50
2023-02-14T01:51:50.877Z,5.50
2023-02-14T01:54:22.074Z,5.50
2023-02-14T01:56:54.164Z,5.60
2023-02-14T01:59:24.920Z,5.50
2023-02-14T02:01:53.381Z,5.60
2023-02-14T02:04:32.561Z,5.60
2023-02-14T02:07:05.807Z,5.70
2023-02-14T02:09:38.421Z,5.60
2023-02-14T02:12:05.541Z,5.70
2023-02-14T02:14:33.175Z,5.70
2023-02-14T02:17:27.729Z,5.80
2023-02-14T02:20:19.559Z,5.60
2023-02-14T02:23:24.077Z,5.60
2023-02-14T02:26:10.512Z,5.60
2023-02-14T02:29:05.152Z,5.60
2023-02-14T02:31:44.256Z,5.60
2023-02-14T02:34:29.728Z,5.70
2023-02-14T02:37:30.482Z,5.50
2023-02-14T02:40:22.962Z,5.50
2023-02-14T02:43:05.789Z,5.50
2023-02-14T02:46:10.231Z,5.50
2023-02-14T02:48:59.101Z,5.50
2023-02-14T02:51:58.104Z,5.50
2023-02-14T02:54:40.646Z,5.50
2023-02-14T02:57:37.733Z,5.40
2023-02-14T03:00:07.706Z,5.30
2023-02-14T03:03:09.614Z,5.30
2023-02-14T03:05:37.400Z,5.30
2023-02-14T03:08:05.261Z,5.30
2023-02-14T03:10:36.419Z,5.30
2023-02-14T03:13:37.756Z,5.30
2023-02-14T03:16:19.743Z,5.30
2023-02-14T03:19:26.195Z,5.30
2023-02-14T03:22:23.621Z,5.30
2023-02-14T03:25:00.802Z,5.30
2023-02-14T03:27:35.296Z,5.30
2023-02-14T03:30:14.697Z,5.30
2023-02-14T03:32:50.064Z,5.50
2023-02-14T03:35:56.074Z,5.50
2023-02-14T03:38:29.489Z,5.50
2023-02-14T03:41:04.352Z,5.30
2023-02-14T03:43:47.317Z,5.30
2023-02-14T03:46:28.066Z,5.40
2023-02-14T03:48:58.304Z,5.50
2023-02-14T03:51:27.357Z,5.60
2023-02-14T03:53:57.972Z,5.40
2023-02-14T03:56:48.253Z,5.50
2023-02-14T03:59:22.525Z,5.40
2023-02-14T04:01:55.609Z,5.40
2023-02-14T04:04:27.062Z,5.40
2023-02-14T04:06:54.121Z,5.40
2023-02-14T04:09:20.991Z,5.30
2023-02-14T04:11:50.401Z,5.50
2023-02-14T04:14:17.907Z,5.30
2023-02-14T04:17:03.321Z,5.30
2023-02-14T04:19:30.181Z,5.30
2023-02-14T04:21:57.127Z,5.20
2023-02-14T04:24:24.011Z,5.20
2023-02-14T04:27:26.274Z,5.10
2023-02-14T04:29:53.183Z,5.10
2023-02-14T04:32:22.341Z,5.10
2023-02-14T04:34:49.862Z,5.20
2023-02-14T04:37:19.039Z,5.20
2023-02-14T04:39:46.452Z,5.30
2023-02-14T04:42:13.355Z,5.20
2023-02-14T04:44:40.321Z,5.10
2023-02-14T04:47:07.724Z,5.10
2023-02-14T04:49:35.366Z,5.10
2023-02-14T04:52:03.488Z,5.00
2023-02-14T04:54:30.486Z,5.10
2023-02-14T04:56:57.803Z,5.10
2023-02-14T04:59:25.282Z,5.10
2023-02-14T05:01:53.172Z,5.10
2023-02-14T05:04:20.423Z,5.00
2023-02-14T05:06:47.608Z,5.00
2023-02-14T05:09:14.531Z,5.00
2023-02-14T05:11:41.488Z,5.00
2023-02-14T05:14:09.022Z,5.00
2023-02-14T05:16:35.967Z,5.10
2023-02-14T05:19:02.976Z,5.10
2023-02-14T05:21:33.214Z,5.10
2023-02-14T05:24:00.984Z,5.10
2023-02-14T05:26:31.144Z,4.90
2023-02-14T05:28:58.007Z,4.80
2023-02-14T05:31:25.213Z,4.80
2023-02-14T05:33:52.189Z,5.00
2023-02-14T05:36:19.089Z,4.90
2023-02-14T05:38:45.923Z,4.80
2023-02-14T05:41:12.931Z,4.90
2023-02-14T05:43:39.913Z,5.00
2023-02-14T05:46:07.028Z,5.00
2023-02-14T05:48:34.152Z,5.00
2023-02-14T05:51:09.436Z,4.90
2023-02-14T05:53:36.800Z,4.90
2023-02-14T05:56:04.397Z,4.80
2023-02-14T05:58:32.010Z,4.80
2023-02-14T06:01:00.105Z,4.80
2023-02-14T06:03:27.644Z,4.80
2023-02-14T06:05:54.548Z,4.80
2023-02-14T06:08:21.700Z,4.90
2023-02-14T06:10:48.583Z,4.80
2023-02-14T06:13:15.502Z,4.80
2023-02-14T06:15:42.358Z,4.80
2023-02-14T06:18:09.277Z,4.90
2023-02-14T06:20:36.271Z,5.00
2023-02-14T06:23:03.477Z,4.80
2023-02-14T06:25:30.371Z,4.80
2023-02-14T06:27:59.228Z,4.80
2023-02-14T06:30:27.288Z,4.80
2023-02-14T06:32:54.325Z,5.00
2023-02-14T06:35:21.451Z,4.90
2023-02-14T06:37:48.653Z,4.90
2023-02-14T06:40:15.995Z,4.90
2023-02-14T06:42:43.061Z,4.90
2023-02-14T06:45:10.502Z,4.80
2023-02-14T06:47:37.864Z,4.90
2023-02-14T06:50:05.853Z,4.90
2023-02-14T06:52:33.765Z,4.90
2023-02-14T06:55:00.726Z,5.00
2023-02-14T06:57:27.868Z,4.80
2023-02-14T06:59:55.110Z,4.80
2023-02-14T07:02:24.926Z,4.80
2023-02-14T07:04:52.179Z,4.70
2023-02-14T07:07:19.361Z,4.70
2023-02-14T07:09:46.331Z,4.70
2023-02-14T07:12:13.333Z,4.90
2023-02-14T07:14:43.098Z,4.80
2023-02-14T07:17:10.077Z,4.80
2023-02-14T07:19:37.011Z,4.80
2023-02-14T07:22:04.136Z,4.90
2023-02-14T07:24:31.142Z,4.80
2023-02-14T07:26:58.242Z,4.90
2023-02-14T07:29:25.290Z,4.90
2023-02-14T07:31:52.358Z,4.80
2023-02-14T07:34:19.462Z,4.80
2023-02-14T07:36:46.936Z,4.80
2023-02-14T07:39:13.905Z,4.80
2023-02-14T07:41:41.026Z,4.80
2023-02-14T07:44:08.088Z,4.90
2023-02-14T07:46:35.073Z,4.90
2023-02-14T07:49:02.165Z,5.00
2023-02-14T07:51:29.013Z,4.90
2023-02-14T07:53:56.007Z,4.90
2023-02-14T07:56:23.061Z,5.10
2023-02-14T07:58:50.138Z,4.90
2023-02-14T08:01:17.952Z,5.10
2023-02-14T08:03:47.023Z,5.00
2023-02-14T08:06:14.008Z,5.00
2023-02-14T08:08:40.925Z,5.00
2023-02-14T08:11:07.900Z,5.20
2023-02-14T08:13:34.918Z,5.20
2023-02-14T08:16:05.223Z,5.20
2023-02-14T08:18:35.648Z,5.20
2023-02-14T08:21:02.840Z,5.20
2023-02-14T08:23:30.068Z,5.20
2023-02-14T08:25:57.475Z,5.30
2023-02-14T08:28:25.528Z,5.10
2023-02-14T08:30:53.291Z,5.10
2023-02-14T08:33:21.361Z,5.10
2023-02-14T08:35:48.294Z,5.10
2023-02-14T08:38:15.522Z,5.20
2023-02-14T08:40:42.942Z,5.20
2023-02-14T08:43:10.285Z,5.30
2023-02-14T08:45:37.818Z,5.40
2023-02-14T08:48:07.470Z,5.40
2023-02-14T08:50:35.897Z,5.50
2023-02-14T08:53:13.766Z,5.60
2023-02-14T08:55:41.044Z,5.60
2023-02-14T08:58:08.820Z,5.70
2023-02-14T09:00:35.854Z,5.50
2023-02-14T09:03:08.306Z,5.70
2023-02-14T09:05:44.616Z,5.60
2023-02-14T09:08:12.802Z,5.80
2023-02-14T09:10:39.753Z,5.60
2023-02-14T09:13:07.423Z,5.70
2023-02-14T09:15:34.783Z,5.90
2023-02-14T09:18:02.014Z,5.50
2023-02-14T09:20:29.114Z,5.60
2023-02-14T09:22:57.264Z,5.70
2023-02-14T09:25:24.302Z,5.80
2023-02-14T09:27:51.310Z,5.90
2023-02-14T09:30:18.389Z,5.90
2023-02-14T09:32:45.359Z,6.00
2023-02-14T09:35:12.350Z,6.20
2023-02-14T09:37:39.412Z,6.20
2023-02-14T09:40:06.948Z,6.30
2023-02-14T09:42:40.876Z,6.50
2023-02-14T09:45:21.194Z,6.50
2023-02-14T09:47:55.634Z,6.50
2023-02-14T09:51:01.212Z,6.50
2023-02-14T09:53:32.322Z,6.40
2023-02-14T09:56:37.342Z,6.40
2023-02-14T09:59:27.493Z,6.50
2023-02-14T10:02:15.224Z,6.60
2023-02-14T10:04:59.605Z,6.60
2023-02-14T10:07:40.323Z,6.70
2023-02-14T10:10:31.643Z,6.70
2023-02-14T10:13:19.831Z,6.70
2023-02-14T10:15:49.855Z,6.70
2023-02-14T10:18:34.544Z,6.70
2023-02-14T10:21:03.311Z,6.80
2023-02-14T10:23:53.555Z,6.90
2023-02-14T10:26:35.078Z,7.00
2023-02-14T10:29:06.380Z,7.00
2023-02-14T10:31:58.574Z,7.00
2023-02-14T10:34:49.460Z,7.00
2023-02-14T10:37:25.449Z,7.10
2023-02-14T10:40:24.630Z,7.10
2023-02-14T10:43:34.444Z,7.10
2023-02-14T10:46:35.717Z,7.20
2023-02-14T10:49:22.817Z,7.30
2023-02-14T10:51:58.924Z,7.20
2023-02-14T10:54:29.149Z,7.30
2023-02-14T10:56:59.976Z,7.40
2023-02-14T10:59:39.784Z,7.30
2023-02-14T11:02:14.004Z,7.30
2023-02-14T11:04:42.302Z,7.50
2023-02-14T11:07:20.151Z,7.50
2023-02-14T11:09:47.324Z,7.50
2023-02-14T11:12:37.479Z,7.60
2023-02-14T11:15:16.833Z,7.70
2023-02-14T11:17:43.878Z,7.60
2023-02-14T11:20:27.946Z,7.40
2023-02-14T11:23:00.704Z,7.50
2023-02-14T11:25:30.787Z,7.50
2023-02-14T11:28:01.990Z,7.60
2023-02-14T11:30:43.827Z,7.70
2023-02-14T11:33:22.381Z,7.80
2023-02-14T11:35:55.641Z,7.90
2023-02-14T11:38:38.385Z,7.90
2023-02-14T11:41:13.260Z,7.80
2023-02-14T11:43:43.067Z,7.80
2023-02-14T11:46:24.072Z,7.90
2023-02-14T11:49:06.950Z,7.90
2023-02-14T11:51:36.896Z,8.10
2023-02-14T11:54:06.129Z,8.20
2023-02-14T11:56:48.131Z,8.10
2023-02-14T11:59:30.755Z,8.20
2023-02-14T12:02:01.623Z,8.10
2023-02-14T12:04:46.278Z,8.00
2023-02-14T12:07:36.742Z,8.20
2023-02-14T12:10:27.925Z,8.30
2023-02-14T12:13:00.935Z,8.40
2023-02-14T12:15:42.789Z,8.50
2023-02-14T12:18:33.286Z,8.60
2023-02-14T12:21:16.651Z,8.70
2023-02-14T12:23:59.953Z,8.90
2023-02-14T12:26:43.157Z,8.90
2023-02-14T12:29:18.880Z,8.90
2023-02-14T12:31:47.711Z,8.70
2023-02-14T12:34:21.053Z,8.50
2023-02-14T12:37:11.798Z,8.50
2023-02-14T12:40:08.440Z,8.50
2023-02-14T12:42:51.693Z,8.50
2023-02-14T12:45:59.195Z,8.50
2023-02-14T12:48:32.774Z,8.50
2023-02-14T12:51:10.721Z,8.60
2023-02-14T12:53:51.779Z,8.60
2023-02-14T12:56:42.817Z,8.50
2023-02-14T12:59:27.481Z,8.50
2023-02-14T13:02:22.036Z,8.50
2023-02-14T13:05:01.686Z,8.50
2023-02-14T13:07:53.563Z,8.20
2023-02-14T13:10:41.695Z,8.00
2023-02-14T13:13:26.650Z,7.80
2023-02-14T13:16:27.442Z,8.00
2023-02-14T13:19:04.225Z,8.10
2023-02-14T13:21:37.422Z,8.10
2023-02-14T13:24:37.613Z,8.10
2023-02-14T13:27:08.791Z,8.10
2023-02-14T13:29:48.305Z,8.10
2023-02-14T13:32:21.536Z,8.10
2023-02-14T13:34:49.535Z,8.30
2023-02-14T13:37:22.687Z,8.30
2023-02-14T13:39:54.186Z,8.30
2023-02-14T13:42:57.972Z,8.30
2023-02-14T13:45:34.960Z,8.50
2023-02-14T13:48:12.583Z,8.50
2023-02-14T13:50:54.531Z,8.60
2023-02-14T13:53:48.144Z,8.40
2023-02-14T13:56:17.928Z,8.30
2023-02-14T13:58:50.035Z,8.30
2023-02-14T14:01:32.075Z,8.40
2023-02-14T14:04:02.881Z,8.50
2023-02-14T14:06:33.191Z,8.40
2023-02-14T14:09:00.442Z,8.40
2023-02-14T14:11:30.170Z,8.40
2023-02-14T14:14:01.740Z,8.30
2023-02-14T14:16:35.206Z,8.10
2023-02-14T14:19:36.943Z,8.20
2023-02-14T14:22:18.448Z,8.20
2023-02-14T14:25:12.726Z,8.30
2023-02-14T14:27:47.674Z,8.30
2023-02-14T14:30:28.469Z,8.30
2023-02-14T14:32:55.726Z,8.20
2023-02-14T14:35:25.240Z,8.10
2023-02-14T14:37:57.315Z,8.00
2023-02-14T14:40:37.927Z,8.00
2023-02-14T14:43:21.729Z,8.00
2023-02-14T14:45:53.401Z,7.90
2023-02-14T14:48:30.590Z,7.90
2023-02-14T14:51:09.698Z,8.00
2023-02-14T14:53:46.948Z,8.00
2023-02-14T14:56:25.806Z,8.00
2023-02-14T14:58:53.525Z,8.00
2023-02-14T15:01:40.072Z,7.90
2023-02-14T15:04:25.248Z,7.80
2023-02-14T15:06:52.450Z,7.90
2023-02-14T15:09:22.402Z,7.90
2023-02-14T15:12:11.576Z,7.90
2023-02-14T15:14:43.474Z,7.90
2023-02-14T15:17:20.384Z,7.90
2023-02-14T15:19:53.956Z,7.80
2023-02-14T15:22:26.226Z,7.70
2023-02-14T15:24:53.626Z,7.60
2023-02-14T15:27:23.615Z,7.60
2023-02-14T15:29:59.074Z,7.40
2023-02-14T15:32:29.950Z,7.20
2023-02-14T15:34:57.623Z,7.00
2023-02-14T15:37:25.322Z,6.90
2023-02-14T15:39:55.902Z,6.80
2023-02-14T15:42:29.299Z,6.50
2023-02-14T15:45:17.048Z,6.40
2023-02-14T15:47:46.483Z,6.30
2023-02-14T15:50:26.072Z,6.20
2023-02-14T15:52:56.283Z,6.20
2023-02-14T15:55:26.630Z,6.10
2023-02-14T15:58:00.385Z,6.00
2023-02-14T16:00:27.551Z,6.00
2023-02-14T16:02:59.633Z,5.90
2023-02-14T16:05:27.549Z,5.80
2023-02-14T16:08:26.522Z,5.80
2023-02-14T16:11:13.793Z,5.70
2023-02-14T16:13:43.346Z,5.60
2023-02-14T16:16:15.494Z,5.50
2023-02-14T16:18:47.874Z,5.50
2023-02-14T16:21:25.121Z,5.40
2023-02-14T16:24:07.301Z,5.40
2023-02-14T16:26:35.908Z,5.30
2023-02-14T16:29:04.061Z,5.30
2023-02-14T16:31:32.011Z,5.30
2023-02-14T16:33:59.010Z,5.30
2023-02-14T16:36:34.953Z,5.20
2023-02-14T16:39:05.767Z,5.00
2023-02-14T16:41:34.757Z,5.00
2023-02-14T16:44:01.825Z,4.80
2023-02-14T16:46:35.769Z,4.70
2023-02-14T16:49:02.650Z,4.70
2023-02-14T16:51:32.617Z,4.80
2023-02-14T16:54:02.820Z,4.60
2023-02-14T16:56:54.252Z,4.60
2023-02-14T16:59:21.090Z,4.50
2023-02-14T17:01:48.843Z,4.50
2023-02-14T17:04:15.714Z,4.50
2023-02-14T17:06:51.751Z,4.40
2023-02-14T17:09:24.592Z,4.30
2023-02-14T17:11:56.645Z,4.40
2023-02-14T17:14:27.790Z,4.40
2023-02-14T17:16:56.168Z,4.20
2023-02-14T17:19:23.121Z,4.10
2023-02-14T17:21:50.067Z,4.10
2023-02-14T17:24:16.949Z,4.00
2023-02-14T17:26:44.668Z,4.00
2023-02-14T17:29:11.510Z,3.90
2023-02-14T17:31:39.052Z,3.90
2023-02-14T17:34:05.994Z,3.90
2023-02-14T17:36:32.758Z,4.20
2023-02-14T17:38:59.719Z,3.90
2023-02-14T17:41:27.454Z,3.90
2023-02-14T17:43:55.215Z,3.80
2023-02-14T17:46:22.142Z,3.90
2023-02-14T17:48:49.500Z,3.80
2023-02-14T17:51:18.152Z,3.80
2023-02-14T17:53:44.999Z,3.80
2023-02-14T17:56:23.690Z,3.70
2023-02-14T17:58:52.167Z,3.80
2023-02-14T18:01:22.256Z,3.80
2023-02-14T18:03:49.554Z,3.80
2023-02-14T18:06:16.654Z,3.70
2023-02-14T18:08:46.294Z,3.60
2023-02-14T18:11:14.009Z,3.60
2023-02-14T18:13:40.897Z,3.50
2023-02-14T18:16:10.781Z,3.50
2023-02-14T18:18:38.205Z,3.40
2023-02-14T18:21:07.177Z,3.40
2023-02-14T18:23:34.427Z,3.20
2023-02-14T18:26:05.253Z,3.20
2023-02-14T18:28:33.027Z,3.10
2023-02-14T18:31:15.003Z,2.90
2023-02-14T18:33:42.329Z,2.70
2023-02-14T18:36:15.091Z,2.60
2023-02-14T18:38:43.743Z,2.60
2023-02-14T18:41:13.476Z,2.50
2023-02-14T18:43:41.254Z,2.30
2023-02-14T18:46:30.326Z,2.20
2023-02-14T18:48:57.807Z,2.20
2023-02-14T18:51:27.860Z,2.20
2023-02-14T18:53:59.038Z,2.20
2023-02-14T18:56:31.773Z,2.30
2023-02-14T18:59:01.865Z,2.00
2023-02-14T19:01:31.127Z,2.00
2023-02-14T19:04:00.107Z,2.00
2023-02-14T19:06:29.448Z,2.00
2023-02-14T19:08:57.010Z,1.90
2023-02-14T19:11:27.234Z,2.00
2023-02-14T19:13:56.411Z,2.00
2023-02-14T19:16:33.288Z,2.10
2023-02-14T19:19:02.696Z,2.20
2023-02-14T19:21:33.648Z,2.30
2023-02-14T19:24:02.464Z,2.40
2023-02-14T19:26:32.936Z,2.50
2023-02-14T19:29:02.831Z,2.50
2023-02-14T19:31:30.688Z,2.60
2023-02-14T19:33:57.680Z,2.60
2023-02-14T19:36:26.497Z,2.70
2023-02-14T19:38:54.187Z,2.80
2023-02-14T19:41:24.070Z,2.90
2023-02-14T19:43:51.443Z,3.00
2023-02-14T19:46:20.527Z,3.10
2023-02-14T19:48:48.723Z,3.10
2023-02-14T19:51:27.851Z,3.30
2023-02-14T19:53:55.930Z,3.20
2023-02-14T19:56:34.435Z,3.30
2023-02-14T19:59:07.651Z,3.30
2023-02-14T20:01:36.354Z,3.40
2023-02-14T20:04:04.551Z,3.40
2023-02-14T20:06:31.506Z,3.40
2023-02-14T20:08:58.426Z,3.50
2023-02-14T20:11:33.117Z,3.50
2023-02-14T20:14:01.081Z,3.40
2023-02-14T20:16:30.053Z,3.50
2023-02-14T20:18:57.387Z,3.50
2023-02-14T20:21:28.163Z,3.50
2023-02-14T20:24:00.659Z,3.50
2023-02-14T20:26:33.162Z,3.50
2023-02-14T20:29:01.374Z,3.50
2023-02-14T20:31:28.305Z,3.40
2023-02-14T20:33:56.786Z,3.50
2023-02-14T20:36:25.077Z,3.50
2023-02-14T20:39:00.474Z,3.50
2023-02-14T20:41:28.076Z,3.40
2023-02-14T20:43:56.091Z,3.20
2023-02-14T20:46:23.583Z,3.00
2023-02-14T20:48:50.961Z,2.90
2023-02-14T20:51:20.726Z,2.90
2023-02-14T20:53:48.080Z,3.10
2023-02-14T20:56:15.981Z,3.20
2023-02-14T20:58:43.244Z,3.30
2023-02-14T21:01:21.561Z,3.50
2023-02-14T21:03:52.842Z,3.60
2023-02-14T21:06:22.334Z,3.60
2023-02-14T21:08:50.303Z,3.50
2023-02-14T21:11:19.946Z,3.40
2023-02-14T21:13:47.133Z,3.40
2023-02-14T21:16:19.466Z,3.50
2023-02-14T21:18:52.469Z,3.40
2023-02-14T21:21:22.221Z,3.40
2023-02-14T21:23:50.632Z,3.40
2023-02-14T21:26:18.289Z,3.40
2023-02-14T21:28:45.416Z,3.40
2023-02-14T21:31:14.160Z,3.40
2023-02-14T21:33:41.270Z,3.50
2023-02-14T21:36:11.108Z,3.50
2023-02-14T21:38:38.635Z,3.50
2023-02-14T21:41:08.067Z,3.40
2023-02-14T21:43:38.080Z,3.50
2023-02-14T21:46:06.577Z,3.60
2023-02-14T21:48:51.952Z,3.60
2023-02-14T21:51:19.421Z,3.70
2023-02-14T21:53:46.840Z,3.50
2023-02-14T21:56:17.970Z,3.40
2023-02-14T21:58:45.671Z,3.40
2023-02-14T22:01:17.853Z,3.50
2023-02-14T22:03:47.191Z,3.50
2023-02-14T22:06:14.675Z,3.60
2023-02-14T22:08:42.457Z,3.60
2023-02-14T22:11:12.161Z,3.70
2023-02-14T22:13:39.092Z,3.70
2023-02-14T22:16:11.594Z,3.70
2023-02-14T22:18:38.919Z,3.70
2023-02-14T22:21:09.043Z,3.70
2023-02-14T22:23:37.093Z,3.60
2023-02-14T22:26:11.598Z,3.50
2023-02-14T22:28:39.365Z,3.40
2023-02-14T22:31:06.993Z,3.50
2023-02-14T22:33:34.788Z,3.40
2023-02-14T22:36:03.722Z,3.50
2023-02-14T22:38:30.750Z,3.40
2023-02-14T22:40:57.619Z,3.50
2023-02-14T22:43:24.616Z,3.50
2023-02-14T22:45:51.437Z,3.60
2023-02-14T22:48:18.738Z,3.60
2023-02-14T22:50:45.676Z,3.60
2023-02-14T22:53:12.498Z,3.70
2023-02-14T22:55:39.836Z,3.70
2023-02-14T22:58:06.687Z,3.60
2023-02-14T23:00:33.608Z,3.60
2023-02-14T23:03:00.568Z,3.60
2023-02-14T23:05:27.383Z,3.70
2023-02-14T23:07:54.229Z,3.70
2023-02-14T23:10:21.109Z,3.80
2023-02-14T23:13:06.532Z,3.80
2023-02-14T23:15:51.740Z,3.90
2023-02-14T23:18:37.184Z,3.80
2023-02-14T23:21:22.780Z,3.80
2023-02-14T23:23:49.708Z,3.80
2023-02-14T23:26:20.357Z,3.90
2023-02-14T23:28:47.260Z,3.90
2023-02-14T23:31:14.243Z,3.60
2023-02-14T23:33:41.085Z,3.60
2023-02-14T23:36:08.027Z,3.70
2023-02-14T23:38:38.067Z,3.60
2023-02-14T23:41:30.375Z,3.60
2023-02-14T23:43:57.234Z,3.70
2023-02-14T23:46:24.025Z,3.60
2023-02-14T23:48:50.861Z,3.60
2023-02-14T23:51:17.630Z,3.70
2023-02-14T23:53:44.451Z,3.80
2023-02-14T23:56:11.306Z,3.80
2023-02-14T23:58:38.128Z,3.80
